Home > Products > Valid Products > TAF

000
FTUS44 KLIX 271700
TAFNEW
TAF
KNEW 271723Z 2718/2818 36010KT P6SM SKC
     FM280500 03009KT P6SM SKC=



000
FTUS44 KLIX 271700
TAFNEW
TAF
KNEW 271723Z 2718/2818 36010KT P6SM SKC
     FM280500 03009KT P6SM SKC=



000
FTUS44 KLIX 271700
TAFMSY
TAF
KMSY 271723Z 2718/2818 36015KT P6SM SKC
     FM280800 05007KT P6SM SKC=



000
FTUS44 KLIX 271700
TAFGPT
TAF
KGPT 271723Z 2718/2818 30003KT P6SM SKC
     FM280600 03007KT P6SM SKC=



000
FTUS44 KLIX 271700
TAFMCB
TAF
KMCB 271723Z 2718/2818 35010KT P6SM SKC
     FM272300 36005KT P6SM SKC=



000
FTUS44 KLIX 271700
TAFBTR
TAF
KBTR 271723Z 2718/2818 36007KT P6SM SKC=



000
FTUS44 KLIX 271100
TAFNEW
TAF
KNEW 271123Z 2712/2812 33010KT P6SM SKC
     FM280500 03009KT P6SM SKC=



000
FTUS44 KLIX 271100
TAFBTR
TAF
KBTR 271123Z 2712/2812 00000KT P6SM SKC=



000
FTUS44 KLIX 271100
TAFGPT
TAF
KGPT 271123Z 2712/2812 30003KT P6SM SKC
     FM280600 03007KT P6SM SKC=



000
FTUS44 KLIX 271100
TAFNEW
TAF
KNEW 271123Z 2712/2812 33010KT P6SM SKC
     FM280500 03009KT P6SM SKC=



000
FTUS44 KLIX 271100
TAFMCB
TAF
KMCB 271123Z 2712/2812 33009KT P6SM SKC
     FM271500 35010KT P6SM SKC
     FM272300 36005KT P6SM SKC=



000
FTUS44 KLIX 271100
TAFMSY
TAF
KMSY 271123Z 2712/2812 32005KT P6SM SKC
     FM280800 05007KT P6SM SKC=



000
FTUS44 KLIX 270500 RRA
TAFNEW
TAF
KNEW 270540Z 2706/2806 30013KT P6SM SKC
     FM271000 34014KT P6SM SKC
     FM272100 36009KT P6SM SKC=



000
FTUS44 KLIX 270500 RRA
TAFGPT
TAF
KGPT 270540Z 2706/2806 31010KT P6SM SKC
     FM271400 35011KT P6SM SKC
     FM280500 03008KT P6SM SKC=



000
FTUS44 KLIX 270500 RRA
TAFBTR
TAF
KBTR 270540Z 2706/2806 32005KT P6SM SKC
     FM271300 36008KT P6SM SKC
     FM272300 02007KT P6SM SKC=



000
FTUS44 KLIX 270500 RRA
TAFMSY
TAF
KMSY 270540Z 2706/2806 31009KT P6SM SKC
     FM271100 35012KT P6SM SKC
     FM272300 02009KT P6SM SKC=



000
FTUS44 KLIX 270500 RRA
TAFMCB
TAF
KMCB 270540Z 2706/2806 32006KT P6SM SKC
     FM271500 35010KT P6SM SKC
     FM272200 35006KT P6SM SKC=



000
FTUS44 KLIX 270500 RRA
TAFNEW
TAF
KNEW 270540Z 2706/2806 30013KT P6SM SKC
     FM271000 34014KT P6SM SKC
     FM272100 36009KT P6SM SKC=



000
FTUS44 KLIX 262300
TAFNEW
TAF
KNEW 262335Z 2700/2724 23015KT P6SM SKC
     FM270400 28016KT P6SM SKC
     FM270800 32018KT P6SM SKC
     FM271300 36017KT P6SM SKC
     FM272100 36011KT P6SM SKC=



000
FTUS44 KLIX 262300
TAFMCB
TAF
KMCB 262335Z 2700/2724 24009G16KT P6SM SKC
     FM270500 32006KT P6SM SKC
     FM271500 35010KT P6SM SKC
     FM272200 35006KT P6SM SKC=



000
FTUS44 KLIX 262300
TAFNEW
TAF
KNEW 262335Z 2700/2724 23015KT P6SM SKC
     FM270400 28016KT P6SM SKC
     FM270800 32018KT P6SM SKC
     FM271300 36017KT P6SM SKC
     FM272100 36011KT P6SM SKC=



000
FTUS44 KLIX 262300
TAFGPT
TAF
KGPT 262335Z 2700/2724 17004KT P6SM SKC
     FM270400 28009KT P6SM SKC
     FM270800 32010KT P6SM SKC
     FM272300 36009KT P6SM SKC=



000
FTUS44 KLIX 262300
TAFMSY
TAF
KMSY 262335Z 2700/2724 23012KT P6SM FEW010
     FM270400 28010KT P6SM SKC
     FM270700 32009KT P6SM SKC
     FM271400 36011KT P6SM SKC
     FM272200 36007KT P6SM SKC=



000
FTUS44 KLIX 262300
TAFBTR
TAF
KBTR 262335Z 2700/2724 23011KT P6SM SKC
     FM270100 24005KT P6SM SKC
     FM270700 31005KT P6SM SKC
     FM271300 35007KT P6SM SKC=



000
FTUS44 KLIX 261700
TAFBTR
TAF
KBTR 261731Z 2618/2718 23011KT P6SM SKC
     FM270000 25007KT P6SM SKC
     FM270500 31005KT P6SM SKC
     FM271500 01006KT P6SM SKC=



000
FTUS44 KLIX 261700
TAFNEW
TAF
KNEW 261731Z 2618/2718 22004KT P6SM SKC
     FM262100 24010KT P6SM SKC
     FM270300 27013KT P6SM SKC
     FM270700 31020KT P6SM SKC
     FM271100 35015KT P6SM SKC
     FM271600 36009KT P6SM SKC=



000
FTUS44 KLIX 261700
TAFNEW
TAF
KNEW 261731Z 2618/2718 22004KT P6SM SKC
     FM262100 24010KT P6SM SKC
     FM270300 27013KT P6SM SKC
     FM270700 31020KT P6SM SKC
     FM271100 35015KT P6SM SKC
     FM271600 36009KT P6SM SKC=



000
FTUS44 KLIX 261700
TAFMSY
TAF
KMSY 261731Z 2618/2718 20009KT P6SM SKC
     FM270300 27010KT P6SM SKC
     FM270600 31009KT P6SM SKC
     FM271100 35010KT P6SM SKC=



000
FTUS44 KLIX 261700
TAFGPT
TAF
KGPT 261731Z 2618/2718 18005KT P6SM SKC=



000
FTUS44 KLIX 261700
TAFMCB
TAF
KMCB 261731Z 2618/2718 20011KT P6SM SKC
     FM270100 26007KT P6SM SKC
     FM270600 32006KT P6SM SKC=



000
FTUS44 KLIX 261100
TAFBTR
TAF
KBTR 261132Z 2612/2712 00000KT P6SM SKC
     FM261600 22008KT P6SM SKC
     FM261900 24012KT P6SM SKC
     FM262300 25008KT P6SM SKC
     FM270500 31005KT P6SM SKC=



000
FTUS44 KLIX 261100
TAFMSY
TAF
KMSY 261132Z 2612/2712 00000KT P6SM SKC
     FM261700 24009KT P6SM SKC
     FM270400 28010KT P6SM SKC
     FM270700 32009KT P6SM SKC=



000
FTUS44 KLIX 261100
TAFGPT
TAF
KGPT 261132Z 2612/2712 00000KT P6SM SKC
     FM261700 25010KT P6SM SKC
     FM270400 28009KT P6SM SKC
     FM270800 32009KT P6SM SKC=



000
FTUS44 KLIX 261100
TAFMCB
TAF
KMCB 261132Z 2612/2712 00000KT P6SM SKC
     FM261600 22010KT P6SM SKC
     FM270000 25008KT P6SM SKC
     FM270500 32006KT P6SM SKC=



000
FTUS44 KLIX 261100
TAFNEW
TAF
KNEW 261132Z 2612/2712 35004KT P6SM SKC
     FM261600 25006KT P6SM SKC
     FM270400 28011KT P6SM SKC
     FM270800 33012G20KT P6SM SKC=



000
FTUS44 KLIX 260500
TAFBTR
TAF
KBTR 260526Z 2606/2706 00000KT P6SM SKC
     FM261500 23008KT P6SM SKC
     FM270200 29006KT P6SM SKC=



000
FTUS44 KLIX 260500
TAFGPT
TAF
KGPT 260526Z 2606/2706 33008KT P6SM SKC
     FM261100 34006KT P6SM FEW250
     FM261900 25010KT P6SM SKC
     FM270400 30012KT P6SM SKC=



000
FTUS44 KLIX 260500
TAFNEW
TAF
KNEW 260526Z 2606/2706 34019KT P6SM SKC
     FM260900 32005KT P6SM FEW250
     FM261600 26007KT P6SM SKC
     FM262100 24011KT P6SM SKC
     FM270300 28010KT P6SM SKC=



000
FTUS44 KLIX 260500
TAFMSY
TAF
KMSY 260526Z 2606/2706 33010KT P6SM SKC
     FM261000 31004KT P6SM FEW250
     FM261700 24009KT P6SM SKC
     FM270300 28010KT P6SM SKC=



000
FTUS44 KLIX 260500
TAFNEW
TAF
KNEW 260526Z 2606/2706 34019KT P6SM SKC
     FM260900 32005KT P6SM FEW250
     FM261600 26007KT P6SM SKC
     FM262100 24011KT P6SM SKC
     FM270300 28010KT P6SM SKC=



000
FTUS44 KLIX 260500
TAFMCB
TAF
KMCB 260526Z 2606/2706 31003KT P6SM SKC
     FM261200 23004KT P6SM SKC
     FM261500 23008KT P6SM SKC
     FM261800 24012KT P6SM SKC
     FM270000 26008KT P6SM SKC
     FM270500 32006KT P6SM SKC=



000
FTUS44 KLIX 252300 AAA
TAFNEW
TAF AMD
KNEW 252359Z 2600/2624 33015KT P6SM SCT130 BKN250
     FM260700 33008KT P6SM SKC
     FM261600 26007KT P6SM SKC
     FM262100 24011KT P6SM SKC=



000
FTUS44 KLIX 252300 AAA
TAFNEW
TAF AMD
KNEW 252359Z 2600/2624 33015KT P6SM SCT130 BKN250
     FM260700 33008KT P6SM SKC
     FM261600 26007KT P6SM SKC
     FM262100 24011KT P6SM SKC=



000
FTUS44 KLIX 252300
TAFNEW
TAF
KNEW 252322Z 2600/2624 35010KT P6SM BKN100
     FM260300 34012KT P6SM SCT130 BKN250
     FM260700 33008KT P6SM SKC
     FM261600 26007KT P6SM SKC
     FM262100 24011KT P6SM SKC=



000
FTUS44 KLIX 252300
TAFBTR
TAF
KBTR 252322Z 2600/2624 VRB03KT P6SM SCT140 BKN250
     FM260800 VRB03KT P6SM SKC
     FM261500 23008KT P6SM SKC
     FM261800 24012KT P6SM SKC=



000
FTUS44 KLIX 252300
TAFNEW
TAF
KNEW 252322Z 2600/2624 35010KT P6SM BKN100
     FM260300 34012KT P6SM SCT130 BKN250
     FM260700 33008KT P6SM SKC
     FM261600 26007KT P6SM SKC
     FM262100 24011KT P6SM SKC=



000
FTUS44 KLIX 252300
TAFMCB
TAF
KMCB 252322Z 2600/2624 VRB03KT P6SM BKN130
     FM261200 23005KT P6SM SKC
     FM261800 24012KT P6SM SKC=



000
FTUS44 KLIX 252300
TAFMSY
TAF
KMSY 252322Z 2600/2624 35010KT P6SM BKN120
     FM260300 34010KT P6SM SCT140 BKN250
     FM260800 32006KT P6SM FEW250
     FM261600 26007KT P6SM SKC
     FM261900 24014KT P6SM SKC=



000
FTUS44 KLIX 252300
TAFGPT
TAF
KGPT 252322Z 2600/2624 33006KT P6SM OVC100
     FM260300 34005KT P6SM SCT100 BKN250
     FM261100 30006KT P6SM FEW250
     FM261900 25010KT P6SM SKC=



000
FTUS44 KLIX 251900 AAA
TAFGPT
TAF AMD
KGPT 251930Z 2520/2618 35011KT P6SM BKN100
     FM260300 35005KT P6SM SCT110 BKN250
     FM261400 VRB03KT P6SM FEW250=



000
FTUS44 KLIX 251900 AAA
TAFNEW
TAF AMD
KNEW 251930Z 2520/2618 34015KT P6SM OVC100
     FM260300 35012KT P6SM SCT140 BKN250
     FM260800 34008KT P6SM SKC
     FM261400 VRB04KT P6SM FEW250=



000
FTUS44 KLIX 251900 AAA
TAFNEW
TAF AMD
KNEW 251930Z 2520/2618 34015KT P6SM OVC100
     FM260300 35012KT P6SM SCT140 BKN250
     FM260800 34008KT P6SM SKC
     FM261400 VRB04KT P6SM FEW250=



000
FTUS44 KLIX 251700
TAFNEW
TAF
KNEW 251722Z 2518/2618 36015KT P6SM OVC100
     FM260300 35012KT P6SM SCT140 BKN250
     FM260800 34008KT P6SM SKC
     FM261400 VRB04KT P6SM FEW250=



000
FTUS44 KLIX 251700
TAFBTR
TAF
KBTR 251722Z 2518/2618 36007KT P6SM BKN110
     FM252200 34006KT P6SM SCT130 BKN250
     FM260200 00000KT P6SM SCT250
     FM261700 23007KT P6SM SKC=



000
FTUS44 KLIX 251700
TAFNEW
TAF
KNEW 251722Z 2518/2618 36015KT P6SM OVC100
     FM260300 35012KT P6SM SCT140 BKN250
     FM260800 34008KT P6SM SKC
     FM261400 VRB04KT P6SM FEW250=



000
FTUS44 KLIX 251700
TAFMCB
TAF
KMCB 251722Z 2518/2618 35010KT P6SM BKN120
     FM260200 VRB03KT P6SM SCT150 BKN250
     FM261700 21007KT P6SM SKC=



000
FTUS44 KLIX 251700
TAFGPT
TAF
KGPT 251722Z 2518/2618 01011KT P6SM BKN100
     FM260300 35005KT P6SM SCT110 BKN250
     FM261400 VRB03KT P6SM FEW250=



000
FTUS44 KLIX 251700
TAFMSY
TAF
KMSY 251722Z 2518/2618 36013KT P6SM OVC100
     FM260200 35009KT P6SM BKN140
     FM260800 VRB04KT P6SM FEW250=



000
FTUS44 KLIX 251100
TAFBTR
TAF
KBTR 251122Z 2512/2612 00000KT P6SM SKC
     FM251400 01006KT P6SM BKN100
     FM260200 00000KT P6SM SCT100=



000
FTUS44 KLIX 251100
TAFNEW
TAF
KNEW 251122Z 2512/2612 03018KT P6SM BKN120
     FM252100 34013KT P6SM BKN100
     FM260700 34008KT P6SM SKC=



000
FTUS44 KLIX 251100
TAFMSY
TAF
KMSY 251122Z 2512/2612 01010KT P6SM SCT120 BKN250
     FM252100 34011KT P6SM BKN100
     FM260300 35008KT P6SM SCT100
     FM260900 34004KT P6SM FEW100=



000
FTUS44 KLIX 251100
TAFMCB
TAF
KMCB 251122Z 2512/2612 01003KT P6SM SCT100
     FM251500 01007KT P6SM BKN100
     FM260200 VRB03KT P6SM SCT100=



000
FTUS44 KLIX 251100
TAFNEW
TAF
KNEW 251122Z 2512/2612 03018KT P6SM BKN120
     FM252100 34013KT P6SM BKN100
     FM260700 34008KT P6SM SKC=



000
FTUS44 KLIX 251100
TAFGPT
TAF
KGPT 251122Z 2512/2612 01011KT P6SM FEW120
     FM260300 35007KT P6SM SCT100=



000
FTUS44 KLIX 250500
TAFNEW
TAF
KNEW 250534Z 2506/2606 01018KT P6SM SKC
     FM251800 01017KT P6SM BKN100
     FM260300 35012KT P6SM SCT250=



000
FTUS44 KLIX 250500
TAFNEW
TAF
KNEW 250534Z 2506/2606 01018KT P6SM SKC
     FM251800 01017KT P6SM BKN100
     FM260300 35012KT P6SM SCT250=



000
FTUS44 KLIX 250500
TAFMSY
TAF
KMSY 250534Z 2506/2606 01009KT P6SM SCT150
     FM251800 01014KT P6SM BKN100
     FM260200 35009KT P6SM BKN200=



000
FTUS44 KLIX 250500
TAFMCB
TAF
KMCB 250534Z 2506/2606 35005KT P6SM SKC
     FM250700 36006KT P6SM SCT150
     FM251800 01008KT P6SM BKN120
     FM260300 35004KT P6SM SCT250=



000
FTUS44 KLIX 250500
TAFGPT
TAF
KGPT 250534Z 2506/2606 35009KT P6SM SKC
     FM251700 01012KT P6SM BKN090
     FM260100 35008KT P6SM BKN090
     FM260400 35007KT P6SM SCT250=



000
FTUS44 KLIX 250500
TAFBTR
TAF
KBTR 250534Z 2506/2606 00000KT P6SM SKC
     FM251800 36007KT P6SM BKN110
     FM252000 35007KT P6SM SCT120
     FM260100 VRB03KT P6SM FEW150=



000
FTUS44 KLIX 242300
TAFMCB
TAF
KMCB 242329Z 2500/2524 33005KT P6SM FEW150
     FM250700 36006KT P6SM SCT150
     FM251800 01008KT P6SM BKN120=



000
FTUS44 KLIX 242300
TAFBTR
TAF
KBTR 242329Z 2500/2524 34005KT P6SM FEW250
     FM251800 36007KT P6SM BKN110
     FM252000 35007KT P6SM SCT120=



000
FTUS44 KLIX 242300
TAFMSY
TAF
KMSY 242329Z 2500/2524 34009KT P6SM SCT250
     FM250500 36013KT P6SM SCT250
     FM251800 01014KT P6SM BKN100=



000
FTUS44 KLIX 242300
TAFNEW
TAF
KNEW 242329Z 2500/2524 34011KT P6SM SCT250
     FM250700 36018G26KT P6SM SCT250
     FM251800 01017KT P6SM BKN100=



000
FTUS44 KLIX 242300
TAFGPT
TAF
KGPT 242329Z 2500/2524 34008KT P6SM FEW250
     FM251500 01012KT P6SM SCT090
     FM251700 01012KT P6SM BKN090=



000
FTUS44 KLIX 242300
TAFNEW
TAF
KNEW 242329Z 2500/2524 34011KT P6SM SCT250
     FM250700 36018G26KT P6SM SCT250
     FM251800 01017KT P6SM BKN100=



    US Dept of Commerce
    National Oceanic and Atmospheric Administration
    National Weather Service
    1325 East West Highway
    Silver Spring, MD 20910
    Page Author: NWS Internet Services Team
Disclaimer
Information Quality
Credits
Glossary
Privacy Policy
Freedom of Information Act (FOIA)
About Us
Career Opportunities